Time;durP1;ratioP1;P1;durP2;ratioP2;P2;SDS_P1;SDS_P2;PMS_P1;PMS_P2;Temp;Humidity;BMP_temperature;BMP_pressure;BME280_temperature;BME280_humidity;BME280_pressure;Samples;Min_cycle;Max_cycle;Signal;HPM_P1;HPM_P2
2023/04/30 00:02:06;;;;;;;6.67;3.50;;;8.20;99.10;;;7.54;70.40;101652.16;5098418;28;20219;-75
2023/04/30 00:04:38;;;;;;;6.37;4.00;;;8.00;98.70;;;7.55;70.60;101645.88;5099165;28;20224;-75
2023/04/30 00:07:10;;;;;;;7.10;3.63;;;8.10;98.80;;;7.55;70.69;101653.00;5098343;28;20185;-74
2023/04/30 00:09:42;;;;;;;6.63;3.40;;;8.10;98.50;;;7.44;70.61;101645.84;5101837;28;20225;-74
2023/04/30 00:12:14;;;;;;;6.23;3.40;;;8.00;98.60;;;7.47;69.92;101650.94;5101439;28;20189;-74
2023/04/30 00:14:46;;;;;;;7.30;3.50;;;8.00;99.10;;;7.36;69.77;101650.94;5101304;28;20200;-75
2023/04/30 00:17:19;;;;;;;6.33;3.60;;;8.00;98.40;;;7.26;71.08;101652.56;5101634;28;20213;-75
2023/04/30 00:19:51;;;;;;;7.17;3.37;;;7.80;99.10;;;7.30;70.78;101647.84;5101240;28;20232;-75
2023/04/30 00:22:23;;;;;;;8.07;3.40;;;7.80;99.00;;;7.23;70.67;101655.47;5101710;28;20201;-75
2023/04/30 00:24:55;;;;;;;6.07;3.67;;;7.80;98.80;;;7.28;71.06;101661.31;5101396;28;20204;-75
2023/04/30 00:27:27;;;;;;;7.97;3.60;;;7.80;99.10;;;7.22;71.03;101667.09;5101847;28;20181;-75
2023/04/30 00:29:59;;;;;;;6.27;3.67;;;7.80;98.80;;;7.21;70.48;101670.72;5101938;28;20230;-75
2023/04/30 00:32:32;;;;;;;5.33;3.33;;;7.80;98.90;;;7.24;71.16;101665.16;5101268;28;20193;-75
2023/04/30 00:35:02;;;;;;;5.73;3.03;;;7.80;99.10;;;7.20;70.90;101669.03;5102479;28;20582;-75
2023/04/30 00:37:34;;;;;;;5.40;3.27;;;7.70;99.00;;;7.18;70.84;101668.28;5102234;28;20216;-75
2023/04/30 00:40:07;;;;;;;8.20;3.50;;;7.70;99.00;;;6.99;71.71;101673.28;5100970;28;20712;-75
2023/04/30 00:42:39;;;;;;;7.80;3.57;;;7.50;99.10;;;7.01;71.46;101666.06;5101599;28;20253;-75
2023/04/30 00:45:12;;;;;;;6.97;3.47;;;7.60;99.10;;;7.08;71.02;101673.47;5100878;28;20219;-75
2023/04/30 00:47:45;;;;;;;11.00;3.60;;;7.60;99.10;;;7.10;71.02;101665.34;5100948;28;20189;-75
2023/04/30 00:50:17;;;;;;;6.20;3.40;;;7.60;99.10;;;7.01;70.73;101679.38;5101099;28;20228;-75
2023/04/30 00:52:49;;;;;;;7.87;3.03;;;7.60;99.10;;;6.90;71.15;101676.66;5100319;28;20199;-74
2023/04/30 00:55:21;;;;;;;6.43;3.30;;;7.50;99.00;;;6.96;71.30;101685.03;5100731;28;20189;-74
2023/04/30 00:57:53;;;;;;;6.37;3.03;;;7.50;99.20;;;6.85;70.85;101686.81;5100721;28;20278;-74
2023/04/30 01:00:27;;;;;;;6.70;2.80;;;7.40;99.20;;;6.79;71.96;101689.88;5100837;28;20724;-74
2023/04/30 01:03:01;;;;;;;7.00;3.30;;;7.40;99.20;;;6.79;71.00;101689.88;5099914;28;20189;-74
2023/04/30 01:05:33;;;;;;;9.47;3.37;;;7.40;99.60;;;6.75;71.86;101691.06;5099546;28;20637;-74
2023/04/30 01:08:05;;;;;;;9.03;3.70;;;7.30;99.70;;;6.68;72.69;101692.50;5100074;28;20193;-73
2023/04/30 01:10:46;;;;;;;7.17;3.60;;;7.30;99.70;;;6.57;73.13;101698.63;5100595;28;20200;-74
2023/04/30 01:13:28;;;;;;;10.23;3.53;;;7.10;99.90;;;6.64;72.27;101691.88;5100466;28;20196;-74
2023/04/30 01:16:11;;;;;;;8.07;3.10;;;7.20;99.80;;;6.55;72.23;101696.06;5100797;28;20189;-74
2023/04/30 01:18:52;;;;;;;8.03;3.43;;;7.10;99.80;;;6.58;72.05;101698.47;5099953;28;20231;-75
2023/04/30 01:21:25;;;;;;;5.60;3.03;;;7.20;99.70;;;6.53;71.96;101695.31;5100235;28;20197;-74
2023/04/30 01:24:18;;;;;;;6.57;3.20;;;7.10;99.30;;;6.47;71.37;101701.06;5100261;28;20189;-75
2023/04/30 01:27:07;;;;;;;7.70;3.63;;;7.10;99.50;;;6.44;72.45;101700.44;5101028;28;20205;-75
2023/04/30 01:29:41;;;;;;;7.20;3.03;;;7.00;99.90;;;6.44;72.13;101701.28;5100343;28;20701;-75
2023/04/30 01:32:14;;;;;;;6.80;3.40;;;7.00;99.70;;;6.40;72.23;101698.97;5100457;28;20195;-75
2023/04/30 01:34:46;;;;;;;5.30;3.07;;;7.00;99.60;;;6.35;71.13;101703.75;5100504;28;20541;-75
2023/04/30 01:37:29;;;;;;;6.30;3.50;;;7.00;99.50;;;6.36;71.73;101701.00;5100246;28;20209;-75
2023/04/30 01:40:17;;;;;;;6.07;3.10;;;6.90;99.40;;;6.28;71.95;101706.00;5101054;28;20293;-75
2023/04/30 01:43:05;;;;;;;9.93;3.57;;;6.90;99.50;;;6.33;72.20;101711.03;5100261;28;20189;-74
2023/04/30 01:45:54;;;;;;;6.30;3.27;;;7.00;99.90;;;6.34;72.68;101705.56;5100552;28;20189;-74
2023/04/30 01:48:35;;;;;;;7.53;3.57;;;6.90;99.90;;;6.33;72.64;101709.22;5100327;28;20216;-75
2023/04/30 01:51:22;;;;;;;6.10;3.60;;;7.00;99.50;;;6.22;72.83;101710.91;5099990;28;20680;-74
2023/04/30 01:53:57;;;;;;;5.73;3.17;;;6.80;99.90;;;6.17;71.69;101719.22;5100020;28;20531;-75
2023/04/30 01:56:37;;;;;;;7.03;3.40;;;6.80;99.30;;;6.22;71.73;101721.56;5100387;28;20199;-75
2023/04/30 01:59:10;;;;;;;7.47;3.90;;;6.80;99.60;;;6.19;72.39;101717.31;5099923;28;20232;-75
2023/04/30 02:01:43;;;;;;;6.80;3.20;;;6.80;99.70;;;6.13;72.27;101716.91;5100291;28;20213;-75
2023/04/30 02:04:15;;;;;;;7.33;3.03;;;6.70;99.80;;;6.05;71.59;101717.44;5100430;28;20185;-75
2023/04/30 02:06:47;;;;;;;5.63;3.17;;;6.70;99.40;;;5.99;72.99;101723.19;5100074;28;20200;-75
2023/04/30 02:09:19;;;;;;;6.13;3.87;;;6.60;99.60;;;5.92;72.08;101724.56;5099688;28;20221;-75
2023/04/30 02:11:51;;;;;;;6.47;3.80;;;6.50;99.80;;;5.87;72.35;101726.69;5099347;28;20537;-75
2023/04/30 02:14:23;;;;;;;6.73;3.80;;;6.50;99.90;;;5.86;73.01;101727.63;5099425;28;20193;-75
2023/04/30 02:16:56;;;;;;;8.37;3.37;;;6.50;99.90;;;5.77;72.73;101725.59;5099554;28;20193;-75
2023/04/30 02:19:28;;;;;;;7.47;3.60;;;6.40;99.90;;;5.83;72.70;101715.38;5098788;28;20243;-75
2023/04/30 02:22:00;;;;;;;7.57;3.10;;;6.50;99.90;;;5.75;72.41;101722.19;5098679;28;20637;-75
2023/04/30 02:24:31;;;;;;;5.03;3.27;;;6.40;99.70;;;5.71;72.72;101728.66;5099517;28;20531;-75
2023/04/30 02:27:03;;;;;;;9.47;3.47;;;6.30;99.80;;;5.68;73.24;101726.22;5099453;28;20193;-75
2023/04/30 02:29:35;;;;;;;6.33;3.17;;;6.20;99.90;;;5.60;73.25;101724.94;5099646;28;20224;-75
2023/04/30 02:32:09;;;;;;;6.20;3.23;;;6.20;99.90;;;5.55;73.40;101726.19;5097850;28;20189;-74
2023/04/30 02:34:41;;;;;;;4.73;3.57;;;6.20;99.90;;;5.54;73.08;101728.03;5097418;28;20253;-74
2023/04/30 02:37:12;;;;;;;7.17;3.67;;;6.20;99.90;;;5.51;73.10;101725.53;5096817;28;20189;-74
2023/04/30 02:39:44;;;;;;;7.67;3.63;;;6.10;99.90;;;5.53;73.14;101723.66;5096690;28;20236;-74
2023/04/30 02:42:16;;;;;;;8.03;3.50;;;6.20;99.90;;;5.51;72.82;101733.50;5097329;28;20205;-74
2023/04/30 02:44:48;;;;;;;7.77;3.50;;;6.20;99.90;;;5.46;73.04;101727.69;5097487;28;20193;-75
2023/04/30 02:47:21;;;;;;;8.23;3.47;;;6.10;99.90;;;5.45;72.58;101725.97;5098091;28;20212;-75
2023/04/30 02:49:53;;;;;;;9.90;3.50;;;6.10;99.90;;;5.38;73.82;101729.13;5097313;28;20232;-75
2023/04/30 02:52:25;;;;;;;7.23;3.73;;;6.00;99.90;;;5.26;73.28;101725.50;5097254;28;20189;-74
2023/04/30 02:54:57;;;;;;;4.97;3.17;;;5.90;99.90;;;5.38;73.12;101735.28;5097260;28;20193;-75
2023/04/30 02:57:29;;;;;;;8.47;3.50;;;6.10;99.90;;;5.21;73.06;101732.91;5097403;28;20192;-74
2023/04/30 03:00:01;;;;;;;6.73;3.13;;;5.80;99.90;;;5.23;73.39;101739.00;5096976;28;20228;-74
2023/04/30 03:02:34;;;;;;;5.83;3.37;;;5.90;99.90;;;5.19;73.49;101744.59;5097242;28;20189;-74
2023/04/30 03:05:07;;;;;;;7.93;4.07;;;5.90;99.90;;;5.19;73.18;101748.09;5097392;28;20193;-74
2023/04/30 03:07:39;;;;;;;7.90;3.07;;;5.90;99.90;;;5.20;73.07;101752.47;5097491;28;20189;-75
2023/04/30 03:10:13;;;;;;;8.07;3.57;;;5.90;99.90;;;5.05;73.74;101748.16;5096775;28;20236;-74
2023/04/30 03:12:44;;;;;;;8.00;3.43;;;5.70;99.90;;;5.17;73.65;101746.50;5097317;28;20645;-75
2023/04/30 03:15:16;;;;;;;7.47;3.50;;;5.80;99.90;;;5.08;73.38;101747.97;5097398;28;20648;-74
2023/04/30 03:17:50;;;;;;;7.10;3.47;;;5.70;99.90;;;5.06;72.99;101752.53;5097013;28;20193;-74
2023/04/30 03:20:23;;;;;;;5.53;3.30;;;5.70;99.90;;;4.95;73.80;101755.03;5097408;28;20228;-74
2023/04/30 03:22:55;;;;;;;7.40;3.17;;;5.60;99.90;;;4.98;74.19;101757.47;5097104;28;20193;-75
2023/04/30 03:25:26;;;;;;;7.63;3.40;;;5.60;99.90;;;5.02;73.68;101753.66;5097204;28;20566;-75
2023/04/30 03:27:58;;;;;;;6.23;3.30;;;5.70;99.90;;;4.95;73.13;101760.31;5096846;28;20196;-74
2023/04/30 03:30:30;;;;;;;5.00;3.07;;;5.70;99.90;;;4.97;72.81;101756.63;5097519;28;20190;-74
2023/04/30 03:33:05;;;;;;;6.30;3.60;;;5.70;99.90;;;4.91;73.49;101756.16;5097376;28;20189;-74
2023/04/30 03:35:37;;;;;;;7.80;3.23;;;5.60;99.90;;;4.80;73.89;101763.97;5096628;28;20246;-75
2023/04/30 03:38:09;;;;;;;5.90;3.20;;;5.40;99.90;;;4.77;74.01;101762.34;5095894;28;20196;-75
2023/04/30 03:40:40;;;;;;;6.07;3.00;;;5.40;99.90;;;4.71;73.48;101764.56;5096534;28;20193;-74
2023/04/30 03:43:13;;;;;;;6.03;3.33;;;5.40;99.90;;;4.71;74.08;101761.91;5099428;28;20189;-74
2023/04/30 03:45:45;;;;;;;5.50;3.20;;;5.40;99.90;;;4.62;74.52;101762.50;5101614;28;20189;-74
2023/04/30 03:48:19;;;;;;;7.00;3.83;;;5.20;99.90;;;4.63;74.09;101762.38;5101089;28;20200;-75
2023/04/30 03:50:50;;;;;;;6.33;3.07;;;5.30;99.90;;;4.54;74.33;101763.84;5101678;28;20194;-74
2023/04/30 03:53:24;;;;;;;7.07;3.20;;;5.20;99.90;;;4.59;74.47;101764.38;5100797;28;20193;-74
2023/04/30 03:55:57;;;;;;;5.03;3.17;;;5.20;99.90;;;4.58;73.94;101765.34;5100751;28;20220;-74
2023/04/30 03:58:29;;;;;;;6.37;3.23;;;5.30;99.90;;;4.53;73.05;101767.44;5100170;28;20231;-74
2023/04/30 04:01:01;;;;;;;7.20;3.40;;;5.30;99.90;;;4.60;73.92;101763.44;5100122;28;20597;-74
2023/04/30 04:03:36;;;;;;;7.57;3.30;;;5.30;99.90;;;4.46;74.52;101775.84;5101243;28;20193;-74
2023/04/30 04:06:08;;;;;;;7.80;3.33;;;5.10;99.90;;;4.41;75.04;101777.97;5100261;28;20227;-74
2023/04/30 04:08:42;;;;;;;5.67;3.40;;;5.00;99.90;;;4.38;75.16;101784.31;5100489;28;20221;-74
2023/04/30 04:11:14;;;;;;;6.70;3.70;;;5.00;99.90;;;4.47;74.96;101788.19;5100253;28;20189;-74
2023/04/30 04:13:45;;;;;;;5.77;3.23;;;5.10;99.90;;;4.48;74.06;101782.78;5100239;28;20185;-74
2023/04/30 04:16:17;;;;;;;6.37;3.30;;;5.10;99.90;;;4.50;74.76;101790.63;5100629;28;20193;-74
2023/04/30 04:18:51;;;;;;;5.10;3.20;;;5.20;99.90;;;4.57;74.24;101795.47;5100131;28;20271;-74
2023/04/30 04:21:23;;;;;;;5.50;3.03;;;5.20;99.90;;;4.60;74.56;101799.72;5100399;28;20193;-74
2023/04/30 04:23:55;;;;;;;5.50;3.30;;;5.30;99.90;;;4.46;74.25;101803.22;5100043;28;20195;-74
2023/04/30 04:26:27;;;;;;;7.57;4.10;;;5.20;99.90;;;4.40;76.11;101793.00;5100406;28;20246;-74
2023/04/30 04:28:59;;;;;;;5.47;3.73;;;5.00;99.90;;;4.46;74.99;101797.06;5096858;28;20217;-74
2023/04/30 04:31:31;;;;;;;7.37;3.90;;;5.20;99.90;;;4.49;74.67;101807.47;5095901;28;20638;-73
2023/04/30 04:34:06;;;;;;;7.03;3.97;;;5.30;99.90;;;4.43;76.08;101802.56;5096161;28;20271;-73
2023/04/30 04:36:38;;;;;;;7.60;3.70;;;5.10;99.90;;;4.41;75.87;101810.63;5096156;28;20201;-73
2023/04/30 04:39:12;;;;;;;7.00;3.77;;;5.10;99.90;;;4.40;76.50;101810.72;5095961;28;20235;-73
2023/04/30 04:41:44;;;;;;;9.77;4.17;;;5.10;99.90;;;4.36;77.36;101812.69;5096086;28;20199;-73
2023/04/30 04:44:16;;;;;;;7.27;3.60;;;5.10;99.90;;;4.48;76.27;101806.66;5096012;28;20196;-74
2023/04/30 04:46:48;;;;;;;7.80;4.10;;;5.20;99.90;;;4.49;77.44;101813.63;5096138;28;20247;-73
2023/04/30 04:49:21;;;;;;;6.50;4.00;;;5.20;99.90;;;4.54;76.55;101816.00;5095819;28;20232;-73
2023/04/30 04:51:53;;;;;;;11.67;4.03;;;5.30;99.90;;;4.55;76.79;101823.03;5095881;28;20234;-73
2023/04/30 04:54:25;;;;;;;7.50;4.47;;;5.30;99.90;;;4.52;77.48;101812.63;5095543;28;20189;-73
2023/04/30 04:56:57;;;;;;;6.83;4.50;;;5.20;99.90;;;4.54;78.71;101822.19;5095754;28;20258;-73
2023/04/30 04:59:29;;;;;;;8.47;4.37;;;5.30;99.90;;;4.55;78.80;101823.84;5095348;28;20244;-74
2023/04/30 05:02:01;;;;;;;8.33;4.10;;;5.30;99.90;;;4.56;78.80;101825.56;5095628;28;20189;-74
2023/04/30 05:04:34;;;;;;;7.97;4.77;;;5.30;99.90;;;4.60;79.40;101826.22;5095656;28;20284;-73
2023/04/30 05:07:06;;;;;;;11.10;5.00;;;5.40;99.90;;;4.63;79.57;101825.19;5095278;28;20572;-73
2023/04/30 05:09:38;;;;;;;10.83;4.60;;;5.40;99.90;;;4.66;79.40;101830.31;5095457;28;20248;-74
2023/04/30 05:12:10;;;;;;;8.37;4.73;;;5.40;99.90;;;4.69;80.02;101830.13;5095465;28;20189;-74
2023/04/30 05:14:43;;;;;;;12.30;5.80;;;5.50;99.90;;;4.72;81.22;101835.25;5095392;28;20185;-74
2023/04/30 05:17:15;;;;;;;8.40;5.20;;;5.50;99.90;;;4.71;81.54;101834.38;5095399;28;20200;-74
2023/04/30 05:19:49;;;;;;;10.90;5.23;;;5.50;99.90;;;4.75;81.16;101840.34;5095167;28;20229;-74
2023/04/30 05:22:22;;;;;;;10.33;5.27;;;5.60;99.90;;;4.78;81.64;101837.50;5095286;28;20253;-74
2023/04/30 05:24:54;;;;;;;10.30;5.20;;;5.60;99.90;;;4.81;81.77;101839.94;5095230;28;20189;-74
2023/04/30 05:27:26;;;;;;;11.43;5.20;;;5.60;99.90;;;4.84;82.14;101847.72;5095155;28;20203;-74
2023/04/30 05:29:58;;;;;;;11.40;5.50;;;5.60;99.90;;;4.85;81.92;101852.94;5094696;28;20224;-74
2023/04/30 05:32:30;;;;;;;13.47;5.53;;;5.60;99.90;;;4.88;82.15;101841.28;5095076;28;20193;-74
2023/04/30 05:35:04;;;;;;;15.37;5.10;;;5.70;99.90;;;4.92;82.07;101848.09;5094687;28;20284;-74
2023/04/30 05:37:36;;;;;;;13.80;5.33;;;5.70;99.90;;;4.89;82.21;101850.94;5095004;28;20189;-73
2023/04/30 05:40:08;;;;;;;11.10;4.70;;;5.70;99.90;;;4.86;82.83;101844.00;5094797;28;20232;-74
2023/04/30 05:42:39;;;;;;;11.20;5.30;;;5.70;99.90;;;4.91;82.21;101857.00;5094878;28;20193;-74
2023/04/30 05:45:15;;;;;;;10.17;4.80;;;5.70;99.90;;;4.95;82.14;101855.88;5094850;28;20200;-74
2023/04/30 05:47:47;;;;;;;11.67;5.30;;;5.70;99.90;;;4.97;82.15;101856.59;5094737;28;20664;-73
2023/04/30 05:50:21;;;;;;;11.87;4.80;;;5.80;99.90;;;4.99;82.05;101857.38;5094304;28;20225;-73
2023/04/30 05:52:53;;;;;;;11.93;5.07;;;5.80;99.90;;;5.03;82.16;101858.91;5094598;28;20239;-74
2023/04/30 05:55:25;;;;;;;11.87;5.03;;;5.90;99.90;;;5.05;82.00;101862.28;5094554;28;20271;-74
2023/04/30 05:57:56;;;;;;;9.80;4.77;;;5.90;99.90;;;5.03;82.25;101861.53;5094521;28;20196;-74
2023/04/30 06:00:28;;;;;;;11.10;4.80;;;5.90;99.90;;;5.00;82.75;101867.06;5093976;28;20238;-74
2023/04/30 06:03:00;;;;;;;11.70;5.80;;;5.90;99.90;;;5.06;83.21;101861.34;5094438;28;20215;-74
2023/04/30 06:05:33;;;;;;;13.73;5.37;;;5.90;99.90;;;5.07;82.89;101865.69;5093719;28;20204;-73
2023/04/30 06:08:05;;;;;;;11.13;5.20;;;5.90;99.90;;;5.11;82.05;101870.72;5094330;28;20553;-74
2023/04/30 06:10:38;;;;;;;11.00;5.27;;;5.90;99.90;;;5.15;80.64;101865.19;5093998;28;20189;-74
2023/04/30 06:13:10;;;;;;;13.87;5.23;;;6.00;99.90;;;5.21;80.44;101865.66;5093944;28;20642;-74
2023/04/30 06:15:42;;;;;;;15.23;4.17;;;6.10;99.90;;;5.25;80.58;101866.31;5094300;28;20196;-74
2023/04/30 06:18:14;;;;;;;10.57;4.90;;;6.10;99.90;;;5.29;79.93;101868.69;5094165;28;20196;-74
2023/04/30 06:20:48;;;;;;;11.53;4.57;;;6.10;99.90;;;5.34;80.75;101871.88;5094090;28;20216;-74
2023/04/30 06:23:20;;;;;;;13.43;4.70;;;6.20;99.90;;;5.40;79.75;101871.50;5093847;28;20671;-74
2023/04/30 06:25:52;;;;;;;11.87;4.63;;;6.20;99.90;;;5.45;79.28;101876.50;5093784;28;20634;-74
2023/04/30 06:28:23;;;;;;;9.53;4.93;;;6.30;99.90;;;5.50;79.35;101877.91;5093960;28;20236;-74
2023/04/30 06:30:55;;;;;;;14.03;4.57;;;6.40;99.90;;;5.60;78.94;101878.16;5094051;28;20185;-74
2023/04/30 06:33:27;;;;;;;13.17;4.73;;;6.40;99.90;;;5.60;77.11;101875.50;5094038;28;20553;-74
2023/04/30 06:36:00;;;;;;;15.93;4.73;;;6.50;99.90;;;5.65;77.28;101883.19;5093946;28;20193;-74
2023/04/30 06:38:32;;;;;;;8.10;4.67;;;6.50;99.90;;;5.70;77.00;101878.41;5093891;28;20232;-74
2023/04/30 06:41:04;;;;;;;13.67;4.67;;;6.60;99.90;;;5.73;75.09;101872.88;5093842;28;20235;-74
2023/04/30 06:43:36;;;;;;;15.47;4.27;;;6.60;99.90;;;5.77;74.47;101880.56;5093862;28;20262;-74
2023/04/30 06:46:08;;;;;;;10.17;4.40;;;6.60;99.90;;;5.80;74.10;101874.19;5093515;28;20677;-74
2023/04/30 06:48:40;;;;;;;11.97;4.20;;;6.60;99.90;;;5.87;73.68;101881.69;5093459;28;20335;-74
2023/04/30 06:51:13;;;;;;;10.50;4.00;;;6.70;99.90;;;5.93;73.65;101873.28;5093744;28;20196;-74
2023/04/30 06:53:45;;;;;;;10.30;4.20;;;6.80;99.90;;;5.97;72.53;101873.94;5093741;28;20185;-74
2023/04/30 06:56:17;;;;;;;13.03;4.40;;;6.80;99.90;;;6.00;73.39;101874.59;5093725;28;20200;-74
2023/04/30 06:58:49;;;;;;;14.50;4.50;;;6.90;99.90;;;6.03;72.40;101876.16;5093390;28;20233;-74
2023/04/30 07:01:21;;;;;;;10.60;4.43;;;6.90;99.60;;;6.07;72.82;101867.03;5093266;28;20216;-74
2023/04/30 07:03:53;;;;;;;12.37;4.00;;;6.90;99.70;;;6.08;71.02;101871.41;5093650;28;20283;-74
2023/04/30 07:06:27;;;;;;;11.23;4.27;;;7.00;99.10;;;6.09;69.98;101871.31;5093642;28;20273;-74
2023/04/30 07:08:59;;;;;;;12.87;3.97;;;6.90;98.70;;;6.17;72.45;101873.44;5093560;28;20252;-74
2023/04/30 07:11:31;;;;;;;13.90;3.83;;;7.00;99.40;;;6.21;71.65;101868.75;5093558;28;20192;-74
2023/04/30 07:14:02;;;;;;;11.27;4.07;;;7.10;98.90;;;6.34;71.58;101878.44;5093242;28;20641;-74
2023/04/30 07:16:36;;;;;;;10.07;3.70;;;7.20;99.30;;;6.39;71.58;101883.47;5093807;28;20646;-74
2023/04/30 07:19:08;;;;;;;8.87;3.63;;;7.30;99.20;;;6.54;70.39;101885.91;5097589;28;20233;-74
2023/04/30 07:21:41;;;;;;;10.07;3.33;;;7.40;98.30;;;6.60;69.42;101889.97;5097555;28;20212;-74
2023/04/30 07:24:13;;;;;;;9.80;3.43;;;7.50;98.10;;;6.61;71.60;101888.97;5097279;28;20668;-73
2023/04/30 07:26:45;;;;;;;6.27;2.90;;;7.50;98.80;;;6.66;67.93;101883.34;5097499;28;20197;-73
2023/04/30 07:29:17;;;;;;;11.50;4.00;;;7.50;97.80;;;6.77;68.29;101883.44;5097117;28;20704;-74
2023/04/30 07:31:49;;;;;;;14.67;4.00;;;7.60;97.70;;;6.79;70.59;101890.38;5097154;28;20751;-74
2023/04/30 07:34:20;;;;;;;9.63;4.23;;;7.60;98.50;;;6.79;69.82;101893.03;5097356;28;20200;-74
2023/04/30 07:36:53;;;;;;;8.17;4.00;;;7.60;98.30;;;6.83;69.70;101883.00;5097303;28;20193;-74
2023/04/30 07:39:25;;;;;;;11.00;4.10;;;7.70;98.10;;;6.88;70.49;101880.91;5096910;28;20236;-74
2023/04/30 07:41:57;;;;;;;10.63;4.60;;;7.80;98.30;;;6.89;68.59;101882.56;5097150;28;20209;-74
2023/04/30 07:44:29;;;;;;;9.67;4.27;;;7.70;98.10;;;6.89;67.49;101883.44;5097144;28;20199;-74
2023/04/30 07:47:01;;;;;;;9.63;3.87;;;7.70;97.10;;;6.93;66.34;101884.06;5097163;28;20261;-74
2023/04/30 07:49:33;;;;;;;16.17;4.57;;;7.80;96.70;;;7.00;66.72;101883.53;5096680;28;20225;-74
2023/04/30 07:52:09;;;;;;;10.97;4.20;;;7.80;96.60;;;7.08;65.66;101885.66;5096761;28;20193;-74
2023/04/30 07:54:42;;;;;;;12.87;4.33;;;7.90;96.40;;;7.19;66.17;101890.19;5097001;28;20235;-74
2023/04/30 07:57:14;;;;;;;11.73;4.03;;;8.00;96.60;;;7.27;68.49;101886.00;5096937;28;20192;-74
2023/04/30 07:59:46;;;;;;;11.03;3.90;;;8.10;97.60;;;7.42;65.79;101887.56;5096428;28;20232;-74
2023/04/30 08:02:20;;;;;;;12.07;3.83;;;8.20;96.60;;;7.47;65.88;101887.22;5096671;28;20266;-74
2023/04/30 08:04:52;;;;;;;12.67;4.13;;;8.30;96.30;;;7.64;64.81;101887.69;5096717;28;20284;-74
2023/04/30 08:07:25;;;;;;;13.10;4.40;;;8.50;96.20;;;7.68;64.91;101893.63;5096422;28;20644;-74
2023/04/30 08:09:57;;;;;;;6.50;3.80;;;8.50;96.10;;;7.74;64.66;101887.84;5096281;28;20228;-74
2023/04/30 08:12:29;;;;;;;11.57;4.00;;;8.60;96.10;;;7.78;67.89;101899.97;5096374;28;20189;-74
2023/04/30 08:15:05;;;;;;;15.37;3.73;;;8.60;96.90;;;7.83;66.54;101880.97;5096204;28;20645;-74
2023/04/30 08:17:38;;;;;;;11.13;3.63;;;8.70;96.80;;;7.91;67.00;101894.59;5096184;28;20188;-74
2023/04/30 08:20:12;;;;;;;9.40;4.10;;;8.70;97.00;;;7.96;63.70;101887.09;5096224;28;20247;-74
2023/04/30 08:22:46;;;;;;;9.93;3.60;;;8.80;95.20;;;8.01;64.62;101890.28;5096286;28;20208;-74
2023/04/30 08:25:19;;;;;;;14.63;4.20;;;8.80;95.60;;;8.13;64.69;101886.66;5096404;28;20586;-73
2023/04/30 08:27:51;;;;;;;8.83;3.27;;;8.90;95.20;;;8.15;64.22;101884.72;5096186;28;20212;-74
2023/04/30 08:30:23;;;;;;;7.87;3.53;;;9.00;95.20;;;8.19;61.26;101880.84;5095475;28;20735;-74
2023/04/30 08:32:55;;;;;;;10.20;4.03;;;9.00;94.00;;;8.25;62.29;101877.75;5095862;28;20189;-74
2023/04/30 08:35:29;;;;;;;7.50;3.53;;;9.00;94.40;;;8.38;62.27;101878.53;5095852;28;20537;-74
2023/04/30 08:38:02;;;;;;;8.43;3.90;;;9.20;94.40;;;8.50;62.95;101882.91;5096048;28;20190;-74
2023/04/30 08:40:37;;;;;;;10.27;3.87;;;9.30;94.80;;;8.55;64.82;101877.22;5095899;28;20189;-74
2023/04/30 08:43:24;;;;;;;11.57;4.13;;;9.30;95.70;;;8.60;62.07;101881.22;5095649;28;20605;-74
2023/04/30 08:45:56;;;;;;;14.67;4.17;;;9.40;94.30;;;8.71;60.49;101876.84;5095869;28;20189;-74
2023/04/30 08:48:30;;;;;;;10.73;3.50;;;9.50;93.40;;;8.91;61.13;101876.97;5095772;28;20224;-74
2023/04/30 08:51:06;;;;;;;9.37;3.40;;;9.60;93.70;;;8.95;62.79;101869.56;5095821;28;20208;-74
2023/04/30 08:53:42;;;;;;;6.27;3.33;;;9.80;94.10;;;9.04;61.16;101869.66;5095432;28;20597;-74
2023/04/30 08:56:15;;;;;;;9.80;3.50;;;9.80;93.80;;;9.15;64.01;101866.13;5095701;28;20184;-74
2023/04/30 08:58:48;;;;;;;9.27;3.53;;;10.00;94.20;;;9.21;60.30;101867.47;5095092;28;20235;-74
2023/04/30 09:01:23;;;;;;;10.43;3.87;;;10.00;93.30;;;9.23;60.21;101863.72;5095533;28;20219;-74
2023/04/30 09:03:55;;;;;;;7.63;3.53;;;10.00;93.00;;;9.30;60.07;101858.72;5095215;28;20533;-74
2023/04/30 09:06:27;;;;;;;7.97;3.40;;;10.10;93.40;;;9.38;56.44;101865.16;5095649;28;20199;-74
2023/04/30 09:09:09;;;;;;;12.73;3.80;;;10.10;91.30;;;9.44;58.89;101869.97;5095493;28;20302;-74
2023/04/30 09:11:41;;;;;;;7.33;3.23;;;10.20;92.30;;;9.51;56.93;101860.50;5095402;28;20193;-74
2023/04/30 09:14:13;;;;;;;7.67;3.17;;;10.30;91.70;;;9.56;57.36;101863.63;5095342;28;20189;-74
2023/04/30 09:16:51;;;;;;;6.83;3.13;;;10.30;91.20;;;9.70;60.22;101865.16;5095270;28;20196;-73
2023/04/30 09:19:31;;;;;;;8.57;3.20;;;10.40;93.00;;;9.78;59.73;101867.19;5095166;28;20302;-73
2023/04/30 09:22:22;;;;;;;9.60;3.50;;;10.50;92.20;;;9.85;53.66;101866.56;5095140;28;20214;-73
2023/04/30 09:24:55;;;;;;;7.37;2.97;;;10.60;89.60;;;9.99;53.07;101860.03;5095277;28;20263;-73
2023/04/30 09:27:27;;;;;;;8.47;3.20;;;10.70;88.10;;;10.05;56.87;101868.41;5095205;28;20189;-73
2023/04/30 09:30:00;;;;;;;7.13;3.13;;;10.80;91.10;;;10.22;55.02;101867.00;5094868;28;20705;-74
2023/04/30 09:32:33;;;;;;;8.97;3.70;;;11.00;90.10;;;10.32;52.13;101864.38;5095146;28;20280;-74
2023/04/30 09:35:05;;;;;;;8.47;3.27;;;11.10;87.20;;;10.38;53.76;101872.72;5094775;28;20239;-73
2023/04/30 09:37:40;;;;;;;5.63;2.67;;;11.20;88.80;;;10.42;53.89;101876.00;5095867;28;20258;-73
2023/04/30 09:40:15;;;;;;;8.47;3.70;;;11.20;89.40;;;10.45;56.02;101868.56;5093984;28;20240;-73
2023/04/30 09:43:02;;;;;;;6.70;3.33;;;11.20;90.40;;;10.52;55.47;101864.38;5094644;28;20691;-74
2023/04/30 09:45:43;;;;;;;6.00;2.90;;;11.20;90.20;;;10.69;53.49;101862.91;5094868;28;20216;-74
2023/04/30 09:48:17;;;;;;;8.93;3.63;;;11.40;89.00;;;10.85;52.69;101863.28;5094770;28;20560;-74
2023/04/30 09:50:51;;;;;;;6.43;3.30;;;11.60;89.60;;;10.91;49.75;101853.84;5094498;28;20663;-74
2023/04/30 09:53:23;;;;;;;7.30;3.53;;;11.70;83.60;;;10.96;50.69;101849.75;5094396;28;20601;-74
2023/04/30 09:56:02;;;;;;;8.87;3.50;;;11.70;84.70;;;11.02;50.09;101845.69;5094903;28;20189;-73
2023/04/30 09:58:38;;;;;;;11.27;3.60;;;11.70;84.00;;;11.04;49.31;101849.06;5094560;28;20227;-74
2023/04/30 10:01:15;;;;;;;10.03;4.63;;;11.70;83.10;;;11.19;53.08;101843.22;5079710;28;20995;-76
2023/04/30 10:03:44;;;;;;;6.70;3.07;;;11.90;86.20;;;11.33;49.99;101839.28;5059853;28;20202;-75
2023/04/30 10:06:14;;;;;;;12.47;3.67;;;12.00;81.60;;;11.46;49.93;101839.88;5059769;28;20213;-76
2023/04/30 10:08:45;;;;;;;6.57;3.00;;;12.20;84.30;;;11.41;48.86;101844.78;5057361;28;20285;-75
2023/04/30 10:11:19;;;;;;;7.90;3.37;;;12.00;80.30;;;11.53;50.26;101838.31;5040129;28;20191;-76
2023/04/30 10:13:54;;;;;;;6.80;3.40;;;12.20;81.80;;;11.61;48.50;101833.09;5039651;28;20662;-76
2023/04/30 10:16:44;;;;;;;13.27;4.30;;;12.30;80.00;;;11.39;50.68;101836.06;5040178;28;20194;-76
2023/04/30 10:19:18;;;;;;;8.63;3.37;;;12.00;79.20;;;11.52;49.35;101833.09;5038371;28;20242;-76
2023/04/30 10:21:47;;;;;;;8.10;3.43;;;12.20;82.20;;;11.69;46.58;101824.34;5039734;28;20225;-76
2023/04/30 10:24:18;;;;;;;6.67;3.60;;;12.30;77.40;;;11.74;48.59;101832.00;5039539;28;20240;-76
2023/04/30 10:26:48;;;;;;;9.10;3.47;;;12.40;79.20;;;11.88;48.61;101828.91;5037983;28;20229;-76
2023/04/30 10:29:18;;;;;;;5.97;3.23;;;12.50;78.60;;;11.98;47.45;101827.06;5038366;28;20226;-75
2023/04/30 10:31:52;;;;;;;6.03;3.20;;;12.60;78.40;;;12.05;48.51;101837.09;5037628;28;20210;-76
2023/04/30 10:34:35;;;;;;;6.67;3.07;;;12.60;77.20;;;12.07;45.08;101828.88;5033856;28;20209;-76
2023/04/30 10:37:13;;;;;;;6.50;3.50;;;12.80;74.40;;;12.20;43.34;101821.34;5038615;28;20209;-76
2023/04/30 10:39:41;;;;;;;7.07;3.20;;;12.90;72.60;;;12.33;42.43;101829.94;5038065;28;20234;-76
2023/04/30 10:42:12;;;;;;;11.07;3.73;;;12.90;68.60;;;12.33;44.97;101829.94;5039292;28;20940;-76
2023/04/30 10:44:40;;;;;;;7.57;3.80;;;12.90;72.40;;;12.52;47.82;101813.78;5038645;28;20939;-76
2023/04/30 10:47:10;;;;;;;8.47;3.40;;;13.10;77.40;;;12.73;47.85;101810.03;5038728;28;20214;-76
2023/04/30 10:49:39;;;;;;;7.07;3.30;;;13.30;76.10;;;12.71;43.99;101811.00;5038349;28;20250;-76